EST,Max TemperatureF,Mean TemperatureF,Min TemperatureF,Max Dew PointF,MeanDew PointF,Min DewpointF,Max Humidity, Mean Humidity, Min Humidity, Max Sea Level PressureIn, Mean Sea Level PressureIn, Min Sea Level PressureIn, Max VisibilityMiles, Mean VisibilityMiles, Min VisibilityMiles, Max Wind SpeedMPH, Mean Wind SpeedMPH, Max Gust SpeedMPH,PrecipitationIn, CloudCover, Events, WindDirDegrees
2013-2-1,15,12,8,12,8,-1,88,76,63,30.31,30.15,29.93,10,3,0,21,14,26,T,7,Fog-Snow,255
2013-2-2,23,14,5,18,10,3,91,77,62,30.22,30.07,29.96,10,4,0,16,9,20,T,7,Fog-Snow,229
2013-2-3,21,14,7,16,12,5,91,81,71,30.04,29.96,29.88,9,3,0,18,7,24,0.00,8,Fog-Snow,232
2013-2-4,25,19,13,19,17,12,91,83,74,30.05,29.95,29.85,7,3,0,9,4,12,0.03,8,Fog-Snow,152
2013-2-5,29,18,6,27,19,7,100,88,75,30.02,29.90,29.78,6,3,0,18,8,24,T,6,Fog-Snow,233
2013-2-6,32,21,9,21,17,10,92,75,58,30.29,30.22,30.06,10,7,2,16,5,20,T,4,Fog,167
2013-2-7,40,34,27,32,25,19,96,78,59,30.22,30.03,29.85,8,4,0,12,6,16,0.25,7,Fog-Snow,108
2013-2-8,32,24,16,30,24,14,100,85,69,30.39,30.07,29.82,10,6,1,22,11,28,0.01,6,Rain-Snow,345
2013-2-9,32,19,6,19,12,2,92,76,59,30.46,30.37,30.22,10,5,0,13,5,18,0.00,0,Fog,154
2013-2-10,43,34,25,43,30,19,96,80,64,30.21,29.90,29.59,10,7,2,18,9,25,0.05,6,Rain,150
2013-2-11,45,38,30,43,28,22,100,82,64,29.95,29.70,29.56,10,7,1,30,20,45,0.02,8,Snow,238
2013-2-12,30,29,28,23,22,21,78,74,69,30.08,30.02,29.96,10,9,7,21,10,28,T,8,,261
2013-2-13,41,32,22,28,24,19,88,74,59,29.95,29.82,29.74,9,7,3,14,6,18,0.00,2,,209
2013-2-14,40,35,29,32,30,26,92,81,70,29.92,29.78,29.66,10,6,2,24,12,35,T,7,Rain-Snow,230
2013-2-15,33,27,21,28,20,13,92,74,55,30.18,30.07,29.90,10,7,2,17,8,22,0.01,8,Snow,317
2013-2-16,22,18,13,20,14,6,92,80,67,30.14,30.08,30.03,10,4,0,20,8,24,0.02,8,Fog-Snow,283
2013-2-17,25,13,1,12,7,-3,92,72,52,30.26,30.19,30.09,10,10,2,10,3,15,T,3,,216
2013-2-18,49,35,21,43,27,12,92,73,53,30.16,29.82,29.48,10,9,2,25,12,32,0.08,4,Rain,168
2013-2-19,44,31,17,43,20,12,92,82,71,30.04,29.72,29.41,10,3,0,30,18,36,0.10,8,Fog-Rain-Snow,256
2013-2-20,22,19,16,16,13,12,88,78,68,30.32,30.16,30.00,10,3,1,17,12,23,T,8,Snow,303
2013-2-21,27,24,20,18,16,14,77,73,68,30.39,30.31,30.18,10,10,10,18,9,25,0.00,7,,60
2013-2-22,34,28,22,32,24,15,92,85,77,30.16,29.93,29.84,10,4,0,18,9,26,0.19,8,Fog-Rain-Snow,139
2013-2-23,30,28,25,22,20,18,81,75,69,29.97,29.92,29.87,10,6,2,17,11,22,T,8,Snow,231
2013-2-24,35,26,17,27,21,16,92,78,64,30.19,30.06,29.92,10,6,0,14,6,17,T,5,Fog-Snow,242
2013-2-25,40,28,15,25,17,10,92,70,48,30.25,30.17,30.09,10,4,0,8,2,10,0.00,1,Fog,103
2013-2-26,37,33,29,32,27,20,96,78,59,30.07,29.69,29.49,10,5,0,21,10,32,0.37,6,Fog-Rain-Snow,69
2013-2-27,35,34,33,34,33,32,100,95,89,29.61,29.52,29.45,8,2,1,12,4,14,0.13,8,Rain-Snow,313
2013-2-28,36,34,31,32,30,27,96,86,75,30.00,29.78,29.58,10,8,2,16,12,20,T,8,Snow,343